sensor_id;sensor_type;location;lat;lon;timestamp;pressure;altitude;pressure_sealevel;temperature;humidity
47082;BME280;33066;49.296;14.470;2022-10-10T00:01:17;97403.27;;;15.42;34.87
47082;BME280;33066;49.296;14.470;2022-10-10T00:03:42;97399.33;;;15.30;35.03
47082;BME280;33066;49.296;14.470;2022-10-10T00:06:10;97401.08;;;15.26;34.99
47082;BME280;33066;49.296;14.470;2022-10-10T00:08:34;97402.39;;;15.24;34.90
47082;BME280;33066;49.296;14.470;2022-10-10T00:10:59;97401.95;;;15.21;34.57
47082;BME280;33066;49.296;14.470;2022-10-10T00:13:24;97399.34;;;15.14;34.47
47082;BME280;33066;49.296;14.470;2022-10-10T00:15:50;97395.30;;;14.82;34.64
47082;BME280;33066;49.296;14.470;2022-10-10T00:18:14;97393.26;;;15.08;34.65
47082;BME280;33066;49.296;14.470;2022-10-10T00:20:39;97392.06;;;15.02;34.85
47082;BME280;33066;49.296;14.470;2022-10-10T00:23:06;97390.89;;;14.98;34.95
47082;BME280;33066;49.296;14.470;2022-10-10T00:25:31;97382.67;;;14.83;34.93
47082;BME280;33066;49.296;14.470;2022-10-10T00:28:00;97378.06;;;14.85;34.87
47082;BME280;33066;49.296;14.470;2022-10-10T00:30:21;97377.62;;;15.06;34.89
47082;BME280;33066;49.296;14.470;2022-10-10T00:32:46;97379.64;;;15.01;34.89
47082;BME280;33066;49.296;14.470;2022-10-10T00:35:11;97377.03;;;14.98;34.80
47082;BME280;33066;49.296;14.470;2022-10-10T00:37:38;97380.38;;;14.90;34.89
47082;BME280;33066;49.296;14.470;2022-10-10T00:40:03;97378.98;;;14.82;34.90
47082;BME280;33066;49.296;14.470;2022-10-10T00:42:28;97372.22;;;14.83;35.02
47082;BME280;33066;49.296;14.470;2022-10-10T00:47:20;97363.71;;;14.87;34.98
47082;BME280;33066;49.296;14.470;2022-10-10T00:49:44;97363.98;;;14.62;34.96
47082;BME280;33066;49.296;14.470;2022-10-10T00:52:11;97362.36;;;14.87;35.02
47082;BME280;33066;49.296;14.470;2022-10-10T00:54:35;97361.68;;;14.79;34.99
47082;BME280;33066;49.296;14.470;2022-10-10T00:57:05;97359.32;;;14.71;35.10
47082;BME280;33066;49.296;14.470;2022-10-10T00:59:31;97357.18;;;14.67;35.14
47082;BME280;33066;49.296;14.470;2022-10-10T01:01:51;97355.90;;;14.90;35.12
47082;BME280;33066;49.296;14.470;2022-10-10T01:04:29;97357.66;;;14.59;35.06
47082;BME280;33066;49.296;14.470;2022-10-10T01:06:42;97352.34;;;14.83;35.14
47082;BME280;33066;49.296;14.470;2022-10-10T01:09:07;97349.41;;;14.81;35.10
47082;BME280;33066;49.296;14.470;2022-10-10T01:11:41;97343.11;;;14.61;35.18
47082;BME280;33066;49.296;14.470;2022-10-10T01:14:05;97347.43;;;14.42;35.28
47082;BME280;33066;49.296;14.470;2022-10-10T01:16:29;97340.57;;;14.59;35.27
47082;BME280;33066;49.296;14.470;2022-10-10T01:18:55;97338.38;;;14.37;35.31
47082;BME280;33066;49.296;14.470;2022-10-10T01:21:19;97336.15;;;14.40;35.34
47082;BME280;33066;49.296;14.470;2022-10-10T01:26:15;97328.58;;;14.49;35.33
47082;BME280;33066;49.296;14.470;2022-10-10T01:28:39;97324.23;;;14.46;35.24
47082;BME280;33066;49.296;14.470;2022-10-10T01:30:59;97331.61;;;14.37;35.19
47082;BME280;33066;49.296;14.470;2022-10-10T01:33:28;97324.98;;;14.42;35.31
47082;BME280;33066;49.296;14.470;2022-10-10T01:35:54;97327.97;;;14.37;35.45
47082;BME280;33066;49.296;14.470;2022-10-10T01:38:24;97323.52;;;14.33;35.62
47082;BME280;33066;49.296;14.470;2022-10-10T01:40:48;97321.83;;;14.07;35.66
47082;BME280;33066;49.296;14.470;2022-10-10T01:43:06;97319.16;;;14.12;35.46
47082;BME280;33066;49.296;14.470;2022-10-10T01:45:31;97318.02;;;14.34;35.57
47082;BME280;33066;49.296;14.470;2022-10-10T01:47:58;97314.31;;;14.30;35.44
47082;BME280;33066;49.296;14.470;2022-10-10T01:50:24;97311.77;;;14.14;35.58
47082;BME280;33066;49.296;14.470;2022-10-10T01:52:54;97308.99;;;14.04;35.66
47082;BME280;33066;49.296;14.470;2022-10-10T01:55:26;97309.03;;;14.03;35.75
47082;BME280;33066;49.296;14.470;2022-10-10T01:57:43;97308.14;;;13.75;35.57
47082;BME280;33066;49.296;14.470;2022-10-10T02:00:06;97304.08;;;13.98;35.64
47082;BME280;33066;49.296;14.470;2022-10-10T02:02:36;97301.97;;;14.13;35.71
47082;BME280;33066;49.296;14.470;2022-10-10T02:04:57;97296.94;;;14.00;35.77
47082;BME280;33066;49.296;14.470;2022-10-10T02:07:24;97296.06;;;13.88;35.97
47082;BME280;33066;49.296;14.470;2022-10-10T02:09:45;97295.24;;;13.59;36.01
47082;BME280;33066;49.296;14.470;2022-10-10T02:12:10;97290.45;;;13.77;36.08
47082;BME280;33066;49.296;14.470;2022-10-10T02:14:39;97293.08;;;13.49;36.13
47082;BME280;33066;49.296;14.470;2022-10-10T02:17:00;97292.14;;;13.68;36.26
47082;BME280;33066;49.296;14.470;2022-10-10T02:19:26;97289.80;;;13.68;36.29
47082;BME280;33066;49.296;14.470;2022-10-10T02:21:52;97287.24;;;13.67;36.29
47082;BME280;33066;49.296;14.470;2022-10-10T02:24:19;97285.27;;;13.75;36.39
47082;BME280;33066;49.296;14.470;2022-10-10T02:26:45;97287.90;;;13.78;36.13
47082;BME280;33066;49.296;14.470;2022-10-10T02:29:11;97287.42;;;13.81;36.11
47082;BME280;33066;49.296;14.470;2022-10-10T02:31:37;97289.48;;;13.73;36.10
47082;BME280;33066;49.296;14.470;2022-10-10T02:34:04;97291.39;;;13.69;36.23
47082;BME280;33066;49.296;14.470;2022-10-10T02:36:24;97292.77;;;13.73;36.22
47082;BME280;33066;49.296;14.470;2022-10-10T02:38:49;97290.56;;;13.44;36.13
47082;BME280;33066;49.296;14.470;2022-10-10T02:41:17;97291.60;;;13.72;36.02
47082;BME280;33066;49.296;14.470;2022-10-10T02:43:40;97289.39;;;13.74;35.87
47082;BME280;33066;49.296;14.470;2022-10-10T02:46:08;97288.24;;;13.73;35.96
47082;BME280;33066;49.296;14.470;2022-10-10T02:48:31;97282.48;;;13.67;35.95
47082;BME280;33066;49.296;14.470;2022-10-10T02:50:57;97281.24;;;13.66;36.06
47082;BME280;33066;49.296;14.470;2022-10-10T02:53:23;97282.69;;;13.63;36.08
47082;BME280;33066;49.296;14.470;2022-10-10T02:55:48;97281.95;;;13.36;36.18
47082;BME280;33066;49.296;14.470;2022-10-10T02:58:13;97281.06;;;13.36;36.06
47082;BME280;33066;49.296;14.470;2022-10-10T03:00:40;97278.37;;;13.56;36.08
47082;BME280;33066;49.296;14.470;2022-10-10T03:03:05;97278.94;;;13.59;36.15
47082;BME280;33066;49.296;14.470;2022-10-10T03:05:29;97276.85;;;13.63;36.14
47082;BME280;33066;49.296;14.470;2022-10-10T03:07:54;97273.94;;;13.71;36.22
47082;BME280;33066;49.296;14.470;2022-10-10T03:13:00;97267.74;;;14.18;35.48
47082;BME280;33066;49.296;14.470;2022-10-10T03:15:26;97266.74;;;14.14;35.65
47082;BME280;33066;49.296;14.470;2022-10-10T03:17:53;97267.82;;;13.75;35.64
47082;BME280;33066;49.296;14.470;2022-10-10T03:20:16;97268.34;;;13.79;35.84
47082;BME280;33066;49.296;14.470;2022-10-10T03:22:42;97266.72;;;13.76;35.94
47082;BME280;33066;49.296;14.470;2022-10-10T03:25:07;97266.28;;;13.47;36.05
47082;BME280;33066;49.296;14.470;2022-10-10T03:27:32;97267.11;;;13.61;36.21
47082;BME280;33066;49.296;14.470;2022-10-10T03:30:00;97269.92;;;13.61;36.33
47082;BME280;33066;49.296;14.470;2022-10-10T03:32:23;97277.16;;;13.63;36.36
47082;BME280;33066;49.296;14.470;2022-10-10T03:34:48;97274.27;;;13.61;36.49
47082;BME280;33066;49.296;14.470;2022-10-10T03:37:14;97275.90;;;13.64;36.48
47082;BME280;33066;49.296;14.470;2022-10-10T03:39:39;97275.04;;;13.41;36.26
47082;BME280;33066;49.296;14.470;2022-10-10T03:42:04;97273.44;;;13.71;35.95
47082;BME280;33066;49.296;14.470;2022-10-10T03:44:29;97270.44;;;13.44;35.80
47082;BME280;33066;49.296;14.470;2022-10-10T03:46:55;97266.13;;;13.59;35.76
47082;BME280;33066;49.296;14.470;2022-10-10T03:49:21;97263.23;;;13.59;35.86
47082;BME280;33066;49.296;14.470;2022-10-10T03:51:46;97260.72;;;13.66;35.92
47082;BME280;33066;49.296;14.470;2022-10-10T03:54:11;97258.06;;;14.19;35.95
47082;BME280;33066;49.296;14.470;2022-10-10T03:56:37;97255.15;;;13.73;35.95
47082;BME280;33066;49.296;14.470;2022-10-10T03:59:02;97253.46;;;13.74;35.96
47082;BME280;33066;49.296;14.470;2022-10-10T04:01:27;97255.51;;;13.49;35.95
47082;BME280;33066;49.296;14.470;2022-10-10T04:03:53;97257.30;;;13.62;35.66
47082;BME280;33066;49.296;14.470;2022-10-10T04:06:19;97257.35;;;13.54;35.60
47082;BME280;33066;49.296;14.470;2022-10-10T04:08:44;97259.56;;;13.38;35.83
47082;BME280;33066;49.296;14.470;2022-10-10T04:11:09;97252.95;;;13.26;36.07
47082;BME280;33066;49.296;14.470;2022-10-10T04:13:34;97247.31;;;13.28;36.33
47082;BME280;33066;49.296;14.470;2022-10-10T04:16:00;97246.43;;;13.00;36.36
47082;BME280;33066;49.296;14.470;2022-10-10T04:18:25;97247.69;;;13.49;36.28
47082;BME280;33066;49.296;14.470;2022-10-10T04:20:51;97245.99;;;13.41;36.73
47082;BME280;33066;49.296;14.470;2022-10-10T04:23:15;97243.31;;;13.41;36.42
47082;BME280;33066;49.296;14.470;2022-10-10T04:25:41;97237.90;;;13.61;36.59
47082;BME280;33066;49.296;14.470;2022-10-10T04:28:10;97237.79;;;13.64;36.09
47082;BME280;33066;49.296;14.470;2022-10-10T04:30:33;97238.42;;;13.44;36.68
47082;BME280;33066;49.296;14.470;2022-10-10T04:32:57;97237.70;;;13.20;36.50
47082;BME280;33066;49.296;14.470;2022-10-10T04:35:22;97234.10;;;13.35;36.26
47082;BME280;33066;49.296;14.470;2022-10-10T04:37:48;97235.32;;;13.39;36.30
47082;BME280;33066;49.296;14.470;2022-10-10T04:40:13;97233.53;;;13.39;36.44
47082;BME280;33066;49.296;14.470;2022-10-10T04:42:38;97230.41;;;13.37;36.39
47082;BME280;33066;49.296;14.470;2022-10-10T04:45:04;97226.96;;;13.37;36.03
47082;BME280;33066;49.296;14.470;2022-10-10T04:47:29;97226.15;;;13.32;35.95
47082;BME280;33066;49.296;14.470;2022-10-10T04:49:54;97225.10;;;13.38;35.92
47082;BME280;33066;49.296;14.470;2022-10-10T04:52:19;97224.01;;;13.41;35.94
47082;BME280;33066;49.296;14.470;2022-10-10T04:54:46;97226.29;;;13.44;36.35
47082;BME280;33066;49.296;14.470;2022-10-10T04:57:10;97225.47;;;13.28;36.22
47082;BME280;33066;49.296;14.470;2022-10-10T04:59:36;97224.75;;;13.25;36.77
47082;BME280;33066;49.296;14.470;2022-10-10T05:02:01;97221.54;;;13.29;36.47
47082;BME280;33066;49.296;14.470;2022-10-10T05:04:26;97222.17;;;13.30;36.32
47082;BME280;33066;49.296;14.470;2022-10-10T05:06:52;97220.77;;;13.54;36.41
47082;BME280;33066;49.296;14.470;2022-10-10T05:09:17;97222.57;;;13.23;36.45
47082;BME280;33066;49.296;14.470;2022-10-10T05:11:43;97226.37;;;13.19;36.49
47082;BME280;33066;49.296;14.470;2022-10-10T05:14:09;97227.50;;;13.20;36.46
47082;BME280;33066;49.296;14.470;2022-10-10T05:16:34;97231.71;;;13.18;36.33
47082;BME280;33066;49.296;14.470;2022-10-10T05:19:00;97232.35;;;13.16;36.12
47082;BME280;33066;49.296;14.470;2022-10-10T05:21:26;97228.84;;;13.06;36.26
47082;BME280;33066;49.296;14.470;2022-10-10T05:23:51;97227.72;;;13.03;36.44
47082;BME280;33066;49.296;14.470;2022-10-10T05:26:17;97229.13;;;12.99;36.43
47082;BME280;33066;49.296;14.470;2022-10-10T05:28:42;97225.74;;;13.13;36.53
47082;BME280;33066;49.296;14.470;2022-10-10T05:31:08;97225.41;;;13.33;36.61
47082;BME280;33066;49.296;14.470;2022-10-10T05:33:33;97222.80;;;12.91;36.80
47082;BME280;33066;49.296;14.470;2022-10-10T05:36:03;97222.12;;;12.90;36.62
47082;BME280;33066;49.296;14.470;2022-10-10T05:38:24;97219.06;;;13.25;36.07
47082;BME280;33066;49.296;14.470;2022-10-10T05:40:49;97219.56;;;13.25;35.86
47082;BME280;33066;49.296;14.470;2022-10-10T05:43:15;97220.11;;;13.22;36.01
47082;BME280;33066;49.296;14.470;2022-10-10T05:45:42;97223.61;;;13.25;36.14
47082;BME280;33066;49.296;14.470;2022-10-10T05:48:06;97223.12;;;13.29;36.13
47082;BME280;33066;49.296;14.470;2022-10-10T05:50:32;97226.49;;;13.31;36.33
47082;BME280;33066;49.296;14.470;2022-10-10T05:52:56;97228.95;;;13.32;36.51
47082;BME280;33066;49.296;14.470;2022-10-10T05:55:22;97231.17;;;13.46;36.42
47082;BME280;33066;49.296;14.470;2022-10-10T05:57:48;97228.37;;;13.20;37.12
47082;BME280;33066;49.296;14.470;2022-10-10T06:00:13;97224.39;;;13.79;36.35
47082;BME280;33066;49.296;14.470;2022-10-10T06:02:38;97221.82;;;13.42;36.33
47082;BME280;33066;49.296;14.470;2022-10-10T06:05:05;97225.09;;;13.51;36.47
47082;BME280;33066;49.296;14.470;2022-10-10T06:07:28;97232.12;;;13.24;36.18
47082;BME280;33066;49.296;14.470;2022-10-10T06:09:54;97233.39;;;13.52;35.74
47082;BME280;33066;49.296;14.470;2022-10-10T06:12:20;97232.91;;;13.51;35.55
47082;BME280;33066;49.296;14.470;2022-10-10T06:14:45;97232.18;;;13.60;35.97
47082;BME280;33066;49.296;14.470;2022-10-10T06:17:11;97233.19;;;13.41;36.12
47082;BME280;33066;49.296;14.470;2022-10-10T06:19:36;97238.46;;;13.48;36.05
47082;BME280;33066;49.296;14.470;2022-10-10T06:22:03;97238.30;;;13.35;36.01
47082;BME280;33066;49.296;14.470;2022-10-10T06:24:28;97236.89;;;13.63;36.04
47082;BME280;33066;49.296;14.470;2022-10-10T06:26:53;97238.45;;;13.71;36.10
47082;BME280;33066;49.296;14.470;2022-10-10T06:29:18;97237.93;;;13.78;36.22
47082;BME280;33066;49.296;14.470;2022-10-10T06:31:43;97238.87;;;13.88;36.38
47082;BME280;33066;49.296;14.470;2022-10-10T06:34:12;97239.96;;;14.00;36.47
47082;BME280;33066;49.296;14.470;2022-10-10T06:36:34;97242.53;;;14.04;36.49
47082;BME280;33066;49.296;14.470;2022-10-10T06:38:59;97243.31;;;14.06;36.36
47082;BME280;33066;49.296;14.470;2022-10-10T06:41:25;97241.82;;;14.14;36.07
47082;BME280;33066;49.296;14.470;2022-10-10T06:43:53;97241.40;;;14.00;35.95
47082;BME280;33066;49.296;14.470;2022-10-10T06:46:15;97240.89;;;14.26;35.64
47082;BME280;33066;49.296;14.470;2022-10-10T06:48:41;97239.27;;;14.27;35.89
47082;BME280;33066;49.296;14.470;2022-10-10T06:51:08;97241.83;;;14.18;36.30
47082;BME280;33066;49.296;14.470;2022-10-10T06:53:32;97240.95;;;14.29;36.63
47082;BME280;33066;49.296;14.470;2022-10-10T06:55:57;97237.99;;;14.43;37.06
47082;BME280;33066;49.296;14.470;2022-10-10T06:58:22;97241.28;;;14.37;37.15
47082;BME280;33066;49.296;14.470;2022-10-10T07:00:50;97237.86;;;14.55;37.22
47082;BME280;33066;49.296;14.470;2022-10-10T07:03:14;97238.13;;;14.65;37.21
47082;BME280;33066;49.296;14.470;2022-10-10T07:05:39;97235.16;;;14.91;37.15
47082;BME280;33066;49.296;14.470;2022-10-10T07:08:04;97235.86;;;15.09;37.09
47082;BME280;33066;49.296;14.470;2022-10-10T07:10:31;97235.25;;;15.17;37.27
47082;BME280;33066;49.296;14.470;2022-10-10T07:12:56;97237.32;;;14.91;37.10
47082;BME280;33066;49.296;14.470;2022-10-10T07:15:21;97241.52;;;15.26;37.18
47082;BME280;33066;49.296;14.470;2022-10-10T07:17:47;97237.85;;;15.09;37.04
47082;BME280;33066;49.296;14.470;2022-10-10T07:20:14;97238.70;;;14.90;36.87
47082;BME280;33066;49.296;14.470;2022-10-10T07:22:37;97240.75;;;15.16;36.98
47082;BME280;33066;49.296;14.470;2022-10-10T07:25:03;97240.54;;;15.52;37.09
47082;BME280;33066;49.296;14.470;2022-10-10T07:27:28;97239.60;;;15.65;37.03
47082;BME280;33066;49.296;14.470;2022-10-10T07:29:54;97237.48;;;15.42;37.05
47082;BME280;33066;49.296;14.470;2022-10-10T07:32:22;97239.98;;;15.65;36.83
47082;BME280;33066;49.296;14.470;2022-10-10T07:34:45;97237.65;;;15.74;36.57
47082;BME280;33066;49.296;14.470;2022-10-10T07:37:10;97236.42;;;15.81;36.70
47082;BME280;33066;49.296;14.470;2022-10-10T07:39:35;97234.27;;;15.86;36.65
47082;BME280;33066;49.296;14.470;2022-10-10T07:42:00;97236.78;;;15.81;36.55
47082;BME280;33066;49.296;14.470;2022-10-10T07:44:26;97238.15;;;15.45;36.60
47082;BME280;33066;49.296;14.470;2022-10-10T07:46:52;97236.92;;;15.75;36.72
47082;BME280;33066;49.296;14.470;2022-10-10T07:49:17;97237.06;;;15.67;36.79
47082;BME280;33066;49.296;14.470;2022-10-10T07:51:43;97234.10;;;15.46;36.75
47082;BME280;33066;49.296;14.470;2022-10-10T07:54:10;97234.02;;;14.95;37.28
47082;BME280;33066;49.296;14.470;2022-10-10T07:56:33;97234.96;;;15.40;37.26
47082;BME280;33066;49.296;14.470;2022-10-10T07:58:59;97233.75;;;15.43;37.21
47082;BME280;33066;49.296;14.470;2022-10-10T08:01:25;97231.15;;;15.60;37.29
47082;BME280;33066;49.296;14.470;2022-10-10T08:03:50;97234.47;;;15.82;37.42
47082;BME280;33066;49.296;14.470;2022-10-10T08:06:18;97234.38;;;15.91;37.17
47082;BME280;33066;49.296;14.470;2022-10-10T08:08:43;97237.64;;;15.96;37.08
47082;BME280;33066;49.296;14.470;2022-10-10T08:11:08;97233.69;;;15.91;36.84
47082;BME280;33066;49.296;14.470;2022-10-10T08:13:33;97233.03;;;15.95;36.53
47082;BME280;33066;49.296;14.470;2022-10-10T08:15:58;97231.71;;;15.99;36.79
47082;BME280;33066;49.296;14.470;2022-10-10T08:18:23;97230.70;;;15.83;36.84
47082;BME280;33066;49.296;14.470;2022-10-10T08:20:57;97235.02;;;16.06;36.79
47082;BME280;33066;49.296;14.470;2022-10-10T08:23:14;97234.59;;;15.65;36.79
47082;BME280;33066;49.296;14.470;2022-10-10T08:25:40;97232.35;;;15.98;36.86
47082;BME280;33066;49.296;14.470;2022-10-10T08:28:05;97226.78;;;16.04;36.86
47082;BME280;33066;49.296;14.470;2022-10-10T08:30:30;97225.68;;;16.04;36.86
47082;BME280;33066;49.296;14.470;2022-10-10T08:32:56;97225.80;;;16.15;36.83
47082;BME280;33066;49.296;14.470;2022-10-10T08:35:20;97227.03;;;16.33;36.91
47082;BME280;33066;49.296;14.470;2022-10-10T08:37:46;97225.89;;;16.03;36.83
47082;BME280;33066;49.296;14.470;2022-10-10T08:40:14;97228.51;;;16.50;36.50
47082;BME280;33066;49.296;14.470;2022-10-10T08:42:38;97224.09;;;16.13;36.39
47082;BME280;33066;49.296;14.470;2022-10-10T08:45:07;97225.90;;;16.40;36.60
47082;BME280;33066;49.296;14.470;2022-10-10T08:47:35;97221.66;;;16.27;36.52
47082;BME280;33066;49.296;14.470;2022-10-10T08:49:56;97220.22;;;16.41;36.67
47082;BME280;33066;49.296;14.470;2022-10-10T08:52:27;97220.89;;;17.12;36.33
47082;BME280;33066;49.296;14.470;2022-10-10T08:54:45;97220.09;;;17.04;36.09
47082;BME280;33066;49.296;14.470;2022-10-10T08:57:20;97221.29;;;17.07;36.12
47082;BME280;33066;49.296;14.470;2022-10-10T08:59:37;97218.34;;;17.03;35.90
47082;BME280;33066;49.296;14.470;2022-10-10T09:04:25;97216.45;;;17.44;35.70
47082;BME280;33066;49.296;14.470;2022-10-10T09:07:00;97218.76;;;17.50;35.57
47082;BME280;33066;49.296;14.470;2022-10-10T09:09:25;97219.84;;;18.02;34.94
47082;BME280;33066;49.296;14.470;2022-10-10T09:11:54;97219.98;;;18.31;34.58
47082;BME280;33066;49.296;14.470;2022-10-10T09:14:17;97219.16;;;18.45;34.32
47082;BME280;33066;49.296;14.470;2022-10-10T09:16:38;97219.16;;;18.31;34.42
47082;BME280;33066;49.296;14.470;2022-10-10T09:19:05;97217.79;;;18.41;34.05
47082;BME280;33066;49.296;14.470;2022-10-10T09:21:26;97219.72;;;18.65;34.02
47082;BME280;33066;49.296;14.470;2022-10-10T09:23:51;97218.13;;;18.86;33.78
47082;BME280;33066;49.296;14.470;2022-10-10T09:26:16;97218.13;;;18.78;33.75
47082;BME280;33066;49.296;14.470;2022-10-10T09:28:45;97214.59;;;19.10;33.70
47082;BME280;33066;49.296;14.470;2022-10-10T09:31:10;97211.19;;;19.38;33.51
47082;BME280;33066;49.296;14.470;2022-10-10T09:33:37;97205.14;;;19.49;33.49
47082;BME280;33066;49.296;14.470;2022-10-10T09:35:59;97208.70;;;19.61;32.69
47082;BME280;33066;49.296;14.470;2022-10-10T09:38:30;97207.14;;;19.57;32.59
47082;BME280;33066;49.296;14.470;2022-10-10T09:40:51;97205.13;;;19.18;32.62
47082;BME280;33066;49.296;14.470;2022-10-10T09:43:17;97201.06;;;19.18;32.82
47082;BME280;33066;49.296;14.470;2022-10-10T09:45:44;97197.64;;;19.77;32.95
47082;BME280;33066;49.296;14.470;2022-10-10T09:48:07;97197.86;;;19.78;32.80
47082;BME280;33066;49.296;14.470;2022-10-10T09:50:29;97195.24;;;20.19;32.29
47082;BME280;33066;49.296;14.470;2022-10-10T09:52:55;97203.12;;;20.07;32.11
47082;BME280;33066;49.296;14.470;2022-10-10T09:55:24;97202.72;;;20.04;32.20
47082;BME280;33066;49.296;14.470;2022-10-10T09:57:47;97199.39;;;20.04;31.90
47082;BME280;33066;49.296;14.470;2022-10-10T10:02:36;97195.92;;;20.26;32.18
47082;BME280;33066;49.296;14.470;2022-10-10T10:07:28;97198.32;;;19.82;32.17
47082;BME280;33066;49.296;14.470;2022-10-10T10:09:56;97194.00;;;20.27;32.07
47082;BME280;33066;49.296;14.470;2022-10-10T10:12:23;97190.18;;;20.78;31.78
47082;BME280;33066;49.296;14.470;2022-10-10T10:14:42;97196.19;;;21.04;31.53
47082;BME280;33066;49.296;14.470;2022-10-10T10:17:08;97196.54;;;21.30;30.82
47082;BME280;33066;49.296;14.470;2022-10-10T10:19:34;97199.92;;;21.28;30.68
47082;BME280;33066;49.296;14.470;2022-10-10T10:21:58;97200.37;;;21.85;30.21
47082;BME280;33066;49.296;14.470;2022-10-10T10:24:29;97200.75;;;22.10;29.63
47082;BME280;33066;49.296;14.470;2022-10-10T10:26:50;97198.06;;;22.49;29.45
47082;BME280;33066;49.296;14.470;2022-10-10T10:31:51;97190.90;;;22.68;28.59
47082;BME280;33066;49.296;14.470;2022-10-10T10:34:17;97184.09;;;23.43;28.45
47082;BME280;33066;49.296;14.470;2022-10-10T10:36:40;97183.83;;;23.66;27.60
47082;BME280;33066;49.296;14.470;2022-10-10T10:39:02;97182.24;;;23.67;27.56
47082;BME280;33066;49.296;14.470;2022-10-10T10:41:30;97182.48;;;24.04;27.48
47082;BME280;33066;49.296;14.470;2022-10-10T10:44:00;97191.00;;;24.49;27.12
47082;BME280;33066;49.296;14.470;2022-10-10T10:46:26;97190.77;;;24.89;26.59
47082;BME280;33066;49.296;14.470;2022-10-10T10:48:43;97183.36;;;24.61;26.56
47082;BME280;33066;49.296;14.470;2022-10-10T10:51:23;97181.50;;;25.20;26.40
47082;BME280;33066;49.296;14.470;2022-10-10T10:53:37;97177.66;;;25.56;25.70
47082;BME280;33066;49.296;14.470;2022-10-10T10:56:00;97172.91;;;26.01;25.79
47082;BME280;33066;49.296;14.470;2022-10-10T11:00:50;97170.16;;;26.15;25.30
47082;BME280;33066;49.296;14.470;2022-10-10T11:03:18;97170.02;;;26.64;24.79
47082;BME280;33066;49.296;14.470;2022-10-10T11:05:37;97158.04;;;26.66;24.80
47082;BME280;33066;49.296;14.470;2022-10-10T11:08:25;97154.95;;;26.78;24.45
47082;BME280;33066;49.296;14.470;2022-10-10T11:10:33;97154.94;;;27.17;24.30
47082;BME280;33066;49.296;14.470;2022-10-10T11:13:01;97153.58;;;27.18;23.96
47082;BME280;33066;49.296;14.470;2022-10-10T11:15:24;97152.65;;;27.15;23.99
47082;BME280;33066;49.296;14.470;2022-10-10T11:17:48;97144.08;;;27.24;24.11
47082;BME280;33066;49.296;14.470;2022-10-10T11:20:18;97147.58;;;27.19;24.11
47082;BME280;33066;49.296;14.470;2022-10-10T11:22:38;97143.04;;;27.09;24.39
47082;BME280;33066;49.296;14.470;2022-10-10T11:25:03;97143.91;;;26.98;24.35
47082;BME280;33066;49.296;14.470;2022-10-10T11:27:32;97139.98;;;27.07;23.99
47082;BME280;33066;49.296;14.470;2022-10-10T11:29:59;97136.53;;;27.04;24.35
47082;BME280;33066;49.296;14.470;2022-10-10T11:32:20;97134.74;;;27.37;24.30
47082;BME280;33066;49.296;14.470;2022-10-10T11:34:46;97131.55;;;27.34;23.93
47082;BME280;33066;49.296;14.470;2022-10-10T11:37:15;97132.56;;;27.59;23.67
47082;BME280;33066;49.296;14.470;2022-10-10T11:39:37;97128.73;;;27.79;23.63
47082;BME280;33066;49.296;14.470;2022-10-10T11:41:59;97133.79;;;28.37;23.30
47082;BME280;33066;49.296;14.470;2022-10-10T11:44:29;97130.12;;;28.22;22.85
47082;BME280;33066;49.296;14.470;2022-10-10T11:46:55;97125.08;;;28.85;22.70
47082;BME280;33066;49.296;14.470;2022-10-10T11:49:21;97122.28;;;28.89;22.47
47082;BME280;33066;49.296;14.470;2022-10-10T11:51:48;97123.72;;;29.40;22.23
47082;BME280;33066;49.296;14.470;2022-10-10T11:54:19;97117.64;;;29.60;21.41
47082;BME280;33066;49.296;14.470;2022-10-10T11:56:35;97114.46;;;30.34;21.52
47082;BME280;33066;49.296;14.470;2022-10-10T11:59:04;97115.57;;;30.58;20.94
47082;BME280;33066;49.296;14.470;2022-10-10T12:01:26;97112.23;;;30.50;20.88
47082;BME280;33066;49.296;14.470;2022-10-10T12:03:49;97112.72;;;30.38;20.99
47082;BME280;33066;49.296;14.470;2022-10-10T12:06:20;97112.16;;;30.43;20.91
47082;BME280;33066;49.296;14.470;2022-10-10T12:08:41;97115.10;;;30.98;20.57
47082;BME280;33066;49.296;14.470;2022-10-10T12:11:10;97111.42;;;31.38;20.61
47082;BME280;33066;49.296;14.470;2022-10-10T12:13:32;97103.36;;;31.46;20.22
47082;BME280;33066;49.296;14.470;2022-10-10T12:15:57;97101.99;;;31.44;19.94
47082;BME280;33066;49.296;14.470;2022-10-10T12:18:28;97098.82;;;31.78;20.01
47082;BME280;33066;49.296;14.470;2022-10-10T12:20:45;97098.45;;;32.02;20.03
47082;BME280;33066;49.296;14.470;2022-10-10T12:23:18;97096.77;;;31.96;19.86
47082;BME280;33066;49.296;14.470;2022-10-10T12:25:37;97095.91;;;32.20;19.60
47082;BME280;33066;49.296;14.470;2022-10-10T12:28:04;97097.58;;;32.35;19.48
47082;BME280;33066;49.296;14.470;2022-10-10T12:30:28;97089.38;;;32.61;19.34
47082;BME280;33066;49.296;14.470;2022-10-10T12:32:54;97087.05;;;32.99;19.13
47082;BME280;33066;49.296;14.470;2022-10-10T12:35:32;97085.01;;;33.34;18.83
47082;BME280;33066;49.296;14.470;2022-10-10T12:40:20;97086.79;;;33.13;18.26
47082;BME280;33066;49.296;14.470;2022-10-10T12:42:38;97084.49;;;33.35;18.24
47082;BME280;33066;49.296;14.470;2022-10-10T12:45:01;97080.83;;;33.46;18.02
47082;BME280;33066;49.296;14.470;2022-10-10T12:47:39;97079.90;;;33.69;18.25
47082;BME280;33066;49.296;14.470;2022-10-10T12:49:53;97078.86;;;34.01;18.21
47082;BME280;33066;49.296;14.470;2022-10-10T12:52:21;97077.85;;;34.10;18.08
47082;BME280;33066;49.296;14.470;2022-10-10T12:54:44;97075.34;;;34.10;18.05
47082;BME280;33066;49.296;14.470;2022-10-10T12:57:19;97074.01;;;34.30;18.01
47082;BME280;33066;49.296;14.470;2022-10-10T12:59:36;97071.08;;;34.75;17.82
47082;BME280;33066;49.296;14.470;2022-10-10T13:02:05;97068.97;;;34.17;18.05